Flight Track Log - Related Links

Times and Time Zones

All times are in EDT time to prevent confusion due to time zone crossing. See the ASQ4233 flight status page for this flight to view local times or setup timezone preferences in your user account.

Time Position Orientation Groundspeed Altitude Reporting Facility
EDT Latitude Longitude Course Direction KTS MPH feet Rate Location/Type
Mon 07:08:10 PM 29.9739 -95.2939 90° East 166 191 1,100  Level Houston Center
Mon 07:09:42 PM 29.9108 -95.2244 136° Southeast 234 269 4,200 1,938 Climbing Houston Center
Mon 07:10:20 PM 29.9164 -95.1736 83° East 244 281 5,300 1,869 Climbing Houston Center
Mon 07:10:43 PM 29.9178 -95.1417 87° East 268 308 6,100 2,177 Climbing Houston Center
Mon 07:11:00 PM 29.9834 -94.8096 90° East  Level FlightAware Approximate
Mon 07:12:00 PM 29.9833 -94.6787 90° East  Level FlightAware Approximate
Mon 07:12:24 PM 29.9333 -94.9939 83° East 283 326 9,800  Level Houston Center
Mon 07:13:00 PM 29.9834 -94.5478 90° East  Level FlightAware Approximate
Mon 07:13:26 PM 29.9433 -94.8878 84° East 327 376 10,600  Level Houston Center
Mon 07:15:00 PM 29.9834 -94.6924 90° East  Level FlightAware Approximate
Mon 07:15:29 PM 29.9658 -94.6453 90° East 386 444 13,000  Level Houston Center
Mon 07:16:31 PM 29.9769 -94.5206 84° East 389 448 14,500 1,452 Climbing Houston Center
Mon 07:17:33 PM 29.9881 -94.3922 84° East 392 451 16,000 1,330 Climbing Houston Center
Mon 07:19:00 PM 30.0007 -94.2135 77° East  Level FlightAware Approximate
Mon 07:19:36 PM 30.0197 -94.1156 77° East 403 464 18,600  Level Houston Center
Mon 07:20:38 PM 30.0369 -93.9844 81° East 413 475 19,600 919 Climbing Houston Center
Mon 07:21:40 PM 30.0525 -93.8503 82° East 423 487 20,500 919 Climbing Houston Center
Mon 07:22:42 PM 30.0689 -93.7153 82° East 428 493 21,500 1,038 Climbing Houston Center
Mon 07:24:00 PM 30.0775 -93.5469 82° East  Level FlightAware Approximate
Mon 07:24:45 PM 30.1044 -93.4133 82° East 439 505 23,700  Level Houston Center
Mon 07:26:00 PM 30.1182 -93.2516 83° East  Level FlightAware Approximate
Mon 07:26:49 PM 30.1361 -93.1406 83° East 433 498 26,300  Level Houston Center
Mon 07:27:50 PM 30.1869 -93.0211 58° Northeast 419 482 27,500 1,122 Climbing Houston Center
Mon 07:28:00 PM 30.1765 -93.0019 58° Northeast  Level FlightAware Approximate
Mon 07:28:52 PM 30.2475 -92.9094 58° Northeast 413 475 28,600  Level Houston Center
Mon 07:29:54 PM 30.3089 -92.7961 58° Northeast 416 479 29,800 1,268 Climbing Houston Center
Mon 07:30:55 PM 30.3836 -92.6594 58° Northeast 418 481 31,200 1,171 Climbing Houston Center
Mon 07:31:57 PM 30.4461 -92.5447 58° Northeast 423 487 32,200 774 Climbing Houston Center
Mon 07:32:59 PM 30.5075 -92.4333 57° Northeast 430 495 32,800 387 Climbing Houston Center
Mon 07:34:01 PM 30.5753 -92.3056 58° Northeast 458 527 33,000 65 Climbing Houston Center
Mon 07:36:04 PM 30.7294 -92.0203 58° Northeast 476 548 33,000 32 Level Houston Center
Mon 07:37:06 PM 30.7989 -91.8878 59° Northeast 480 552 33,100 634 Climbing Houston Center
Mon 07:38:07 PM 30.8703 -91.7575 57° Northeast 481 554 34,300 927 Climbing Houston Center
Mon 07:39:09 PM 30.9381 -91.6289 58° Northeast 472 543 35,000 339 Climbing Houston Center
Mon 07:40:11 PM 31.0064 -91.5003 58° Northeast 470 541 35,000  Level Houston Center
Mon 07:42:32 PM 31.1683 -91.1803 59° Northeast 493 567 35,000  Level Memphis Center
Mon 07:44:18 PM 31.2908 -90.9561 57° Northeast 459 528 35,000 -36 Level Houston Center
Mon 07:45:19 PM 31.3569 -90.8281 59° Northeast 460 529 34,900  Descending Houston Center
Mon 07:46:21 PM 31.4231 -90.7003 59° Northeast 460 529 35,000  Climbing Houston Center
Mon 07:47:23 PM 31.4889 -90.5719 59° Northeast 458 527 34,900  Descending Houston Center
Mon 07:50:00 PM 31.5639 -90.4051 62° Northeast  Level FlightAware Approximate
Mon 07:50:28 PM 31.7008 -90.1603 62° Northeast 458 527 35,000  Level Houston Center
Mon 07:51:32 PM 31.7739 -90.0203 58° Northeast 454 522 35,000  Level Memphis Center
Mon 07:52:32 PM 31.8381 -89.8903 60° Northeast 454 522 35,000  Level Memphis Center
Mon 07:55:32 PM 32.0322 -89.5022 59° Northeast 454 522 35,000  Level Memphis Center
Mon 07:56:32 PM 32.0981 -89.3717 59° Northeast 454 522 35,000 -200 Level Memphis Center
Mon 07:57:32 PM 32.1639 -89.2408 59° Northeast 454 522 34,600 -700 Descending Memphis Center
Mon 07:58:32 PM 32.2294 -89.1122 59° Northeast 454 522 33,600 -950 Descending Memphis Center
Mon 07:59:32 PM 32.2867 -88.9936 60° Northeast 460 529 32,700 -700 Descending Memphis Center
Mon 08:00:32 PM 32.3497 -88.8694 59° Northeast 449 517 32,200 -350 Descending Memphis Center
Mon 08:01:32 PM 32.4194 -88.7503 55° Northeast 449 517 32,000 -100 Descending Memphis Center
Mon 08:02:32 PM 32.4950 -88.6406 51° Northeast 436 502 32,000 -550 Level Memphis Center
Mon 08:03:32 PM 32.5728 -88.5281 51° Northeast 431 496 30,900 -2,050 Descending Memphis Center
Mon 08:04:32 PM 32.6483 -88.4181 51° Northeast 426 490 27,900 -2,600 Descending Memphis Center
Mon 08:05:32 PM 32.7258 -88.3053 51° Northeast 432 497 25,700 -2,000 Descending Memphis Center
Mon 08:06:32 PM 32.8056 -88.1947 49° Northeast 432 497 23,900 -2,110 Descending Memphis Center
Mon 08:08:34 PM 32.9594 -87.9628 52° Northeast 444 511 19,300 -2,331 Descending Atlanta Center
Mon 08:10:00 PM 33.0471 -87.8047 51° Northeast  Level FlightAware Approximate
Mon 08:10:34 PM 33.0797 -87.7847 51° Northeast 376 433 14,500  Level Atlanta Center
Mon 08:11:23 PM 33.1300 -87.7125 50° Northeast 314 361 13,000 -1,400 Descending Atlanta Center
Mon 08:12:34 PM 33.1847 -87.6253 53° Northeast 305 351 11,700 -870 Descending Atlanta Center
Mon 08:13:34 PM 33.2328 -87.5553 51° Northeast 282 325 11,100 -1,067 Descending Atlanta Center
Mon 08:15:00 PM 33.3203 -87.4113 51° Northeast  Level FlightAware Approximate
Mon 08:15:34 PM 33.2917 -87.3864 51° Northeast 267 307 8,500  Level Atlanta Center
Mon 08:16:34 PM 33.3189 -87.3028 69° East 267 307 7,500 -1,050 Descending Atlanta Center
Mon 08:17:34 PM 33.3461 -87.2192 69° East 273 314 6,400 -1,100 Descending Atlanta Center
Mon 08:18:34 PM 33.3689 -87.1431 70° East 261 300 5,300 -900 Descending Atlanta Center
Mon 08:19:34 PM 33.3936 -87.0717 67° East 244 281 4,600 -650 Descending Atlanta Center
Mon 08:20:34 PM 33.4206 -87.0031 65° Northeast 234 269 4,000 -600 Descending Atlanta Center

Login

Don't have an account? Register now (free) for customized features, flight alerts, and more!